Time;durP1;ratioP1;P1;durP2;ratioP2;P2;SDS_P1;SDS_P2;PMS_P1;PMS_P2;Temp;Humidity;BMP_temperature;BMP_pressure;BME280_temperature;BME280_humidity;BME280_pressure;Samples;Min_cycle;Max_cycle;Signal;HPM_P1;HPM_P2
2022/12/10 00:00:07;;;;;;;1.38;1.05;;;;;;;19.26;62.10;97125.41;2058899;28;19925;-75
2022/12/10 00:01:10;;;;;;;1.98;1.00;;;;;;;19.30;61.80;97123.84;2061659;28;21063;-75
2022/12/10 00:02:12;;;;;;;1.63;0.80;;;;;;;19.31;62.01;97126.31;2062887;28;20059;-75
2022/12/10 00:03:12;;;;;;;1.35;0.90;;;;;;;19.32;62.14;97121.75;2060108;28;20052;-74
2022/12/10 00:04:15;;;;;;;;;;;;;;;19.20;62.25;97127.22;2059825;28;20056;-75
2022/12/10 00:05:15;;;;;;;1.02;0.80;;;;;;;19.22;62.42;97119.69;2062135;28;19929;-74
2022/12/10 00:06:18;;;;;;;;;;;;;;;19.12;62.63;97120.34;2063351;28;20045;-75
2022/12/10 00:07:19;;;;;;;2.40;1.20;;;;;;;19.18;62.51;97116.69;2062577;28;19921;-75
2022/12/10 00:08:20;;;;;;;;;;;;;;;19.12;62.81;97120.34;2058861;28;20054;-75
2022/12/10 00:09:21;;;;;;;0.95;0.75;;;;;;;19.18;62.27;97121.25;2058257;28;20798;-74
2022/12/10 00:10:22;;;;;;;;;;;;;;;19.10;62.78;97122.47;2058281;28;21087;-74
2022/12/10 00:11:24;;;;;;;1.52;0.98;;;;;;;19.15;62.46;97121.75;2050879;28;20018;-74
2022/12/10 00:12:27;;;;;;;1.05;0.95;;;;;;;19.21;62.39;97123.44;2057403;28;20053;-74
2022/12/10 00:13:28;;;;;;;1.42;1.33;;;;;;;19.25;61.96;97124.59;2062350;28;20099;-74
2022/12/10 00:14:29;;;;;;;;;;;;;;;19.13;62.37;97123.84;2060269;28;20053;-74
2022/12/10 00:15:30;;;;;;;2.05;0.70;;;;;;;19.15;62.50;97121.75;2054597;28;20497;-74
2022/12/10 00:16:33;;;;;;;1.70;1.23;;;;;;;19.19;62.15;97118.34;2060589;28;20065;-74
2022/12/10 00:17:34;;;;;;;1.60;1.13;;;;;;;19.22;62.34;97117.00;2055629;28;20653;-74
2022/12/10 00:18:35;;;;;;;;;;;;;;;19.10;62.44;97110.91;2061555;28;20049;-74
2022/12/10 00:19:37;;;;;;;1.13;0.98;;;;;;;19.13;62.36;97115.78;2062844;28;19978;-74
2022/12/10 00:20:38;;;;;;;1.15;0.75;;;;;;;19.17;62.15;97108.88;2060012;28;20774;-74
2022/12/10 00:21:40;;;;;;;2.95;1.02;;;;;;;19.22;62.02;97110.81;2054169;28;20046;-74
2022/12/10 00:22:41;;;;;;;0.88;0.73;;;;;;;19.21;61.89;97118.06;2062403;28;20057;-74
2022/12/10 00:23:43;;;;;;;1.30;0.90;;;;;;;19.20;62.20;97116.47;2051435;28;20049;-74
2022/12/10 00:24:44;;;;;;;2.05;0.80;;;;;;;19.23;62.14;97115.16;2060725;28;20531;-73
2022/12/10 00:25:46;;;;;;;;;;;;;;;19.09;62.26;97109.28;2057745;28;20068;-74
2022/12/10 00:26:47;;;;;;;1.95;0.90;;;;;;;19.16;62.43;97104.56;2056715;28;19929;-74
2022/12/10 00:27:50;;;;;;;;;;;;;;;19.05;62.40;97106.25;2056565;28;20706;-74
2022/12/10 00:28:52;;;;;;;1.52;0.93;;;;;;;19.09;62.22;97101.22;2050296;28;19933;-74
2022/12/10 00:29:54;;;;;;;1.67;1.02;;;;;;;19.13;62.16;97102.34;2054174;28;20528;-74
2022/12/10 00:30:54;;;;;;;1.70;0.80;;;;;;;19.16;62.32;97099.19;2061158;28;20092;-74
2022/12/10 00:31:56;;;;;;;;;;;;;;;19.03;62.56;97102.19;2060225;28;20138;-74
2022/12/10 00:32:57;;;;;;;0.73;0.73;;;;;;;19.09;62.14;97101.22;2062529;28;20412;-74
2022/12/10 00:33:59;;;;;;;;;;;;;;;19.00;62.39;97108.03;2055293;28;20085;-74
2022/12/10 00:35:00;;;;;;;3.80;1.05;;;;;;;19.07;62.59;97101.47;2057854;28;20818;-74
2022/12/10 00:36:02;;;;;;;;;;;;;;;19.00;62.32;97108.03;2059915;28;20084;-74
2022/12/10 00:37:03;;;;;;;1.92;1.00;;;;;;;19.05;62.35;97111.63;2064890;28;20059;-74
2022/12/10 00:38:05;;;;;;;;;;;;;;;18.95;62.82;97109.59;2052154;28;20049;-75
2022/12/10 00:39:06;;;;;;;1.13;0.70;;;;;;;19.01;62.62;97109.69;2060255;28;19925;-74
2022/12/10 00:40:10;;;;;;;0.82;0.82;;;;;;;19.09;62.63;97111.97;2059736;28;20053;-74
2022/12/10 00:41:12;;;;;;;1.58;1.02;;;;;;;19.09;62.49;97107.41;2056441;28;20680;-74
2022/12/10 00:42:14;;;;;;;3.40;1.23;;;;;;;19.13;62.25;97102.34;2060587;28;20049;-74
2022/12/10 00:43:16;;;;;;;3.65;1.35;;;;;;;19.14;61.97;97095.94;2060203;28;20069;-74
2022/12/10 00:44:18;;;;;;;1.90;0.90;;;;;;;19.12;62.12;97095.34;2060427;28;20658;-74
2022/12/10 00:45:18;;;;;;;1.85;1.10;;;;;;;19.12;62.29;97085.41;2058723;28;20550;-74
2022/12/10 00:46:20;;;;;;;;;;;;;;;19.00;62.41;97082.00;2059910;28;20050;-74
2022/12/10 00:47:21;;;;;;;;;;;;;;;18.89;62.91;97090.97;2062162;28;19987;-74
2022/12/10 00:48:23;;;;;;;0.80;0.60;;;;;;;18.94;62.54;97088.34;2060478;28;19960;-74
2022/12/10 00:49:24;;;;;;;2.17;1.00;;;;;;;19.01;62.37;97080.13;2061471;28;21050;-74
2022/12/10 00:50:25;;;;;;;1.42;0.90;;;;;;;19.02;62.63;97073.69;2064385;28;20057;-74
2022/12/10 00:51:27;;;;;;;;;;;;;;;18.91;62.45;97070.81;2063098;28;20061;-74
2022/12/10 00:52:28;;;;;;;1.17;1.08;;;;;;;18.95;62.51;97066.59;2060442;28;19995;-74
2022/12/10 00:53:30;;;;;;;;;;;;;;;18.88;62.78;97065.94;2050979;28;20206;-74
2022/12/10 00:54:31;;;;;;;1.33;1.15;;;;;;;18.92;62.42;97064.41;2057189;28;19939;-74
2022/12/10 00:55:33;;;;;;;;;;;;;;;18.87;62.68;97072.38;2046553;28;20061;-74
2022/12/10 00:56:34;;;;;;;;;;;;;;;18.78;62.96;97079.22;2056073;28;20561;-74
2022/12/10 00:57:35;;;;;;;1.00;0.90;;;;;;;18.85;63.01;97077.19;2059112;28;19925;-74
2022/12/10 00:58:38;;;;;;;1.73;1.38;;;;;;;18.93;62.62;97084.03;2057296;28;20053;-74
2022/12/10 00:59:40;;;;;;;1.13;0.80;;;;;;;18.97;62.56;97088.69;2061585;28;20665;-74
2022/12/10 01:00:41;;;;;;;1.52;1.10;;;;;;;18.97;62.51;97091.38;2059882;28;20049;-74
2022/12/10 01:01:43;;;;;;;;;;;;;;;18.87;62.54;97096.56;2053474;28;20053;-74
2022/12/10 01:02:44;;;;;;;2.55;0.98;;;;;;;18.89;62.56;97091.78;2057418;28;19978;-74
2022/12/10 01:03:45;;;;;;;;;;;;;;;18.82;62.79;97096.47;2063170;28;20351;-74
2022/12/10 01:04:46;;;;;;;0.77;0.77;;;;;;;18.85;62.71;97085.22;2054716;28;19938;-74
2022/12/10 01:05:48;;;;;;;;;;;;;;;18.75;62.73;97085.88;2056768;28;20053;-74
2022/12/10 01:06:49;;;;;;;;;;;;;;;18.70;63.30;97082.25;2054082;28;20020;-74
2022/12/10 01:07:52;;;;;;;1.90;0.80;;;;;;;18.77;63.22;97082.94;2056481;28;19929;-74
2022/12/10 01:08:55;;;;;;;1.15;0.90;;;;;;;18.86;62.84;97075.28;2049171;28;20054;-74
2022/12/10 01:09:57;;;;;;;2.13;1.15;;;;;;;18.88;62.50;97071.31;2052745;28;20068;-74
2022/12/10 01:10:58;;;;;;;0.93;0.75;;;;;;;18.90;62.63;97066.53;2056731;28;20613;-74
2022/12/10 01:12:02;;;;;;;;;;;;;;;18.81;62.81;97075.25;2051214;28;20077;-74
2022/12/10 01:13:03;;;;;;;1.65;0.75;;;;;;;18.84;62.52;97067.50;2050603;28;20020;-74
2022/12/10 01:14:09;;;;;;;1.60;0.95;;;;;;;18.88;62.45;97076.69;2055384;28;20133;-74
2022/12/10 01:15:10;;;;;;;1.38;1.25;;;;;;;18.90;62.51;97079.16;2054226;28;20065;-74
2022/12/10 01:16:12;;;;;;;;;;;;;;;18.78;62.66;97073.84;2057559;28;20041;-74
2022/12/10 01:17:13;;;;;;;1.55;0.75;;;;;;;18.83;62.66;97087.34;2058946;28;19971;-74
2022/12/10 01:18:15;;;;;;;;;;;;;;;18.74;62.82;97086.13;2059472;28;20303;-74
2022/12/10 01:19:19;;;;;;;1.00;0.88;;;;;;;18.80;62.76;97089.69;2053247;28;20562;-74
2022/12/10 01:20:21;;;;;;;1.30;1.15;;;;;;;18.84;62.57;97088.19;2048261;28;20053;-74
2022/12/10 01:21:22;;;;;;;0.70;0.70;;;;;;;18.87;62.44;97077.75;2056753;28;20049;-74
2022/12/10 01:22:24;;;;;;;1.25;0.75;;;;;;;18.89;62.43;97077.53;2058310;28;20132;-74
2022/12/10 01:23:25;;;;;;;3.00;0.75;;;;;;;18.90;62.34;97079.16;2052685;28;21040;-74
2022/12/10 01:24:28;;;;;;;;;;;;;;;18.77;62.87;97072.19;2057082;28;20164;-74
2022/12/10 01:25:28;;;;;;;1.13;0.80;;;;;;;18.80;62.55;97077.09;2054330;28;20637;-74
2022/12/10 01:26:32;;;;;;;;;;;;;;;18.70;63.04;97083.06;2061050;28;20053;-74
2022/12/10 01:27:32;;;;;;;1.00;0.85;;;;;;;18.76;62.88;97078.63;2051710;28;22394;-74
2022/12/10 01:28:35;;;;;;;;;;;;;;;18.68;62.92;97082.50;2057670;28;20164;-74
2022/12/10 01:29:37;;;;;;;2.35;1.25;;;;;;;18.76;63.04;97078.63;2055950;28;20391;-74
2022/12/10 01:30:39;;;;;;;1.52;1.30;;;;;;;18.80;62.77;97077.09;2059438;28;20080;-74
2022/12/10 01:31:40;;;;;;;1.75;1.25;;;;;;;18.83;62.56;97079.28;2065158;28;20058;-74
2022/12/10 01:32:42;;;;;;;1.05;0.73;;;;;;;18.86;62.54;97081.50;2057719;28;20144;-71
2022/12/10 01:33:43;;;;;;;2.80;1.20;;;;;;;18.84;62.11;97078.25;2052984;28;20057;-74
2022/12/10 01:34:45;;;;;;;1.40;0.70;;;;;;;18.84;62.49;97083.63;2051018;28;22070;-74
2022/12/10 01:35:45;;;;;;;2.85;0.93;;;;;;;18.84;62.57;97089.00;2061395;28;20595;-74
2022/12/10 01:36:50;;;;;;;;;;;;;;;18.71;62.61;97084.69;2055734;28;20123;-74
2022/12/10 01:37:50;;;;;;;0.93;0.73;;;;;;;18.76;62.54;97086.69;2056143;28;20091;-74
2022/12/10 01:38:52;;;;;;;;;;;;;;;18.65;62.77;97082.97;2055199;28;20172;-74
2022/12/10 01:39:53;;;;;;;2.05;0.98;;;;;;;18.71;62.60;97083.88;2062997;28;19925;-74
2022/12/10 01:40:55;;;;;;;;;;;;;;;18.64;62.79;97084.03;2056876;28;20107;-74
2022/12/10 01:41:58;;;;;;;1.10;0.90;;;;;;;18.69;62.83;97080.63;2064612;28;19936;-74
2022/12/10 01:43:00;;;;;;;2.25;1.33;;;;;;;18.72;62.62;97078.28;2069067;28;20056;-74
2022/12/10 01:44:05;;;;;;;1.25;0.77;;;;;;;18.77;62.50;97068.69;2065104;28;21181;-74
2022/12/10 01:45:12;;;;;;;1.10;0.73;;;;;;;18.77;62.47;97072.19;2060355;28;20127;-74
2022/12/10 01:46:13;;;;;;;2.40;1.33;;;;;;;18.78;62.72;97070.31;2058318;28;20050;-74
2022/12/10 01:47:14;;;;;;;;;;;;;;;18.66;62.91;97076.53;2062033;28;20050;-74
2022/12/10 01:48:15;;;;;;;;;;;;;;;18.59;63.19;97075.09;2048890;28;19925;-74
2022/12/10 01:49:19;;;;;;;1.07;0.87;;;;;;;18.65;62.91;97082.16;2061530;28;19925;-74
2022/12/10 01:50:20;;;;;;;0.82;0.77;;;;;;;18.70;62.92;97082.25;2060292;28;20578;-74
2022/12/10 01:51:24;;;;;;;1.52;0.80;;;;;;;18.73;62.48;97071.03;2062656;28;20520;-74
2022/12/10 01:52:25;;;;;;;1.77;1.17;;;;;;;18.77;62.55;97072.19;2053540;28;23450;-74
2022/12/10 01:53:27;;;;;;;1.92;1.00;;;;;;;18.78;62.18;97073.84;2051191;28;20115;-74
2022/12/10 01:54:30;;;;;;;1.98;1.25;;;;;;;18.79;62.45;97069.28;2057611;28;20771;-74
2022/12/10 01:55:45;;;;;;;1.73;0.75;;;;;;;18.77;62.41;97061.44;2053152;28;20062;-74
2022/12/10 01:56:50;;;;;;;2.85;1.10;;;;;;;18.75;62.30;97061.72;2055061;28;20593;-74
2022/12/10 01:57:52;;;;;;;1.55;1.30;;;;;;;18.75;62.23;97064.41;2057999;28;20551;-74
2022/12/10 01:58:55;;;;;;;1.10;1.00;;;;;;;18.76;62.30;97057.16;2057139;28;20143;-74
2022/12/10 01:59:59;;;;;;;1.77;0.70;;;;;;;18.76;62.25;97059.84;2057856;28;20058;-74
2022/12/10 02:01:07;;;;;;;0.80;0.60;;;;;;;18.74;62.21;97057.38;2046186;28;20065;-74
2022/12/10 02:02:15;;;;;;;0.98;0.80;;;;;;;18.74;62.48;97056.56;2055805;28;20053;-74
2022/12/10 02:03:26;;;;;;;0.90;0.75;;;;;;;18.74;62.37;97057.38;2053895;28;20061;-74
2022/12/10 02:04:31;;;;;;;;;;;;;;;18.60;62.70;97058.72;2051925;28;20053;-74
2022/12/10 02:05:40;;;;;;;1.10;0.90;;;;;;;18.64;62.81;97059.88;2052383;28;19933;-74
2022/12/10 02:06:51;;;;;;;1.02;0.88;;;;;;;18.67;62.66;97053.22;2061693;28;20538;-73
2022/12/10 02:08:08;;;;;;;1.80;0.82;;;;;;;18.66;62.41;97048.88;2054223;28;21210;-74
2022/12/10 02:09:19;;;;;;;0.63;0.63;;;;;;;18.69;62.35;97048.38;2056261;28;20141;-74
2022/12/10 02:10:31;;;;;;;1.20;1.10;;;;;;;18.68;62.55;97052.94;2060217;28;20054;-74
2022/12/10 02:11:41;;;;;;;1.05;0.95;;;;;;;18.69;62.62;97046.53;2054293;28;20537;-74
2022/12/10 02:12:49;;;;;;;1.25;0.85;;;;;;;18.68;62.37;97049.47;2058369;28;20096;-73
2022/12/10 02:13:59;;;;;;;1.23;1.13;;;;;;;18.69;62.57;97051.06;2065540;28;20053;-74
2022/12/10 02:15:06;;;;;;;1.02;0.93;;;;;;;18.69;62.48;97048.38;2054706;28;20065;-74
2022/12/10 02:16:15;;;;;;;1.30;0.77;;;;;;;18.68;62.42;97052.16;2056424;28;20057;-74
2022/12/10 02:17:19;;;;;;;1.77;0.88;;;;;;;18.70;62.62;97055.41;2049795;28;20179;-74
2022/12/10 02:18:26;;;;;;;1.90;0.95;;;;;;;18.68;62.55;97049.47;2053287;28;22055;-74
2022/12/10 02:19:44;;;;;;;1.17;0.65;;;;;;;18.67;62.34;97039.78;2050608;28;20515;-74
2022/12/10 02:20:49;;;;;;;1.15;0.90;;;;;;;18.67;62.50;97045.16;2057400;28;20053;-74
2022/12/10 02:21:53;;;;;;;0.60;0.57;;;;;;;18.66;62.48;97041.63;2055895;28;20273;-74
2022/12/10 02:23:00;;;;;;;2.63;1.05;;;;;;;18.67;62.38;97045.97;2057288;28;20061;-74
2022/12/10 02:24:04;;;;;;;1.30;0.77;;;;;;;18.68;62.28;97046.78;2055823;28;20049;-74
2022/12/10 02:25:09;;;;;;;1.00;0.90;;;;;;;18.67;62.33;97045.16;2055454;28;20209;-74
2022/12/10 02:26:15;;;;;;;1.77;0.90;;;;;;;18.67;62.39;97051.34;2054101;28;20108;-74
2022/12/10 02:27:24;;;;;;;1.48;1.13;;;;;;;18.65;62.42;97052.63;2059660;28;20057;-74
2022/12/10 02:28:33;;;;;;;1.15;0.90;;;;;;;18.64;62.40;97051.00;2060944;28;20053;-74
2022/12/10 02:29:38;;;;;;;2.65;1.05;;;;;;;18.62;62.72;97053.13;2058512;28;20057;-74
2022/12/10 02:30:41;;;;;;;2.10;0.90;;;;;;;18.64;62.41;97049.13;2063293;28;20107;-74
2022/12/10 02:31:47;;;;;;;1.40;0.95;;;;;;;18.63;62.28;97060.91;2062957;28;20053;-73
2022/12/10 02:32:50;;;;;;;2.35;1.40;;;;;;;18.63;62.29;97047.50;2064341;28;20106;-74
2022/12/10 02:33:57;;;;;;;1.17;1.08;;;;;;;18.61;62.41;97046.09;2057124;28;20483;-74
2022/12/10 02:35:03;;;;;;;1.23;0.93;;;;;;;18.62;62.72;97053.94;2054464;28;20084;-74
2022/12/10 02:36:07;;;;;;;1.42;1.00;;;;;;;18.61;62.39;97051.47;2058802;28;20223;-74
2022/12/10 02:37:15;;;;;;;1.45;0.88;;;;;;;18.61;62.66;97046.09;2052998;28;20138;-74
2022/12/10 02:38:21;;;;;;;0.73;0.73;;;;;;;18.62;62.56;97042.38;2060172;28;20061;-74
2022/12/10 02:39:32;;;;;;;2.22;1.25;;;;;;;18.61;62.39;97041.56;2061060;28;20103;-74
2022/12/10 02:40:36;;;;;;;0.82;0.70;;;;;;;18.57;62.64;97034.22;2063979;28;20060;-74
2022/12/10 02:41:40;;;;;;;1.58;0.85;;;;;;;18.58;62.78;97036.66;2058824;28;20054;-74
2022/12/10 02:42:45;;;;;;;1.00;1.00;;;;;;;18.60;62.55;97036.44;2064956;28;20108;-73
2022/12/10 02:43:49;;;;;;;1.38;0.70;;;;;;;18.59;62.30;97032.13;2066489;28;20049;-74
2022/12/10 02:44:55;;;;;;;0.85;0.60;;;;;;;18.57;62.41;97032.34;2063188;28;20049;-74
2022/12/10 02:45:57;;;;;;;1.50;1.10;;;;;;;18.58;62.51;97025.09;2061709;28;20111;-74
2022/12/10 02:47:00;;;;;;;1.08;0.95;;;;;;;18.57;62.53;97032.34;2057303;28;20322;-74
2022/12/10 02:48:04;;;;;;;1.60;0.88;;;;;;;18.59;62.56;97026.75;2059197;28;20053;-74
2022/12/10 02:49:08;;;;;;;2.08;1.30;;;;;;;18.57;62.48;97028.84;2063498;28;20053;-74
2022/12/10 02:50:12;;;;;;;0.90;0.60;;;;;;;18.56;62.60;97033.41;2057209;28;20042;-74
2022/12/10 02:51:15;;;;;;;0.98;0.85;;;;;;;18.56;62.68;97027.25;2056660;28;20050;-74
2022/12/10 02:52:18;;;;;;;1.27;1.13;;;;;;;18.56;62.37;97021.88;2063496;28;20657;-74
2022/12/10 02:53:20;;;;;;;1.10;0.73;;;;;;;18.56;62.45;97017.31;2059524;28;20053;-74
2022/12/10 02:54:39;;;;;;;1.38;0.70;;;;;;;18.54;62.65;97022.09;2055916;28;20053;-74
2022/12/10 02:56:09;;;;;;;1.05;0.82;;;;;;;18.50;62.76;97015.59;2049821;28;20057;-74
2022/12/10 02:57:28;;;;;;;1.15;0.95;;;;;;;18.47;62.98;97019.59;2048486;28;21192;-74
2022/12/10 02:58:40;;;;;;;1.05;0.95;;;;;;;18.48;62.61;97025.75;2055309;28;20061;-74
2022/12/10 02:59:54;;;;;;;1.50;0.93;;;;;;;18.47;62.61;97013.38;2055034;28;20072;-73
2022/12/10 03:01:04;;;;;;;2.20;0.82;;;;;;;18.48;62.58;97007.78;2059874;28;20045;-74
2022/12/10 03:02:14;;;;;;;0.80;0.80;;;;;;;18.50;62.61;97010.22;2056373;28;20058;-74
2022/12/10 03:03:25;;;;;;;1.83;1.17;;;;;;;18.47;62.70;97002.63;2059533;28;20053;-74
2022/12/10 03:04:31;;;;;;;0.80;0.73;;;;;;;18.46;62.57;97007.19;2056127;28;20054;-74
2022/12/10 03:05:41;;;;;;;1.30;0.90;;;;;;;18.45;62.91;97002.91;2060808;28;20060;-74
2022/12/10 03:06:47;;;;;;;1.30;0.80;;;;;;;18.47;62.75;97002.63;2052406;28;20111;-73
2022/12/10 03:07:56;;;;;;;1.48;0.95;;;;;;;18.45;62.67;97002.91;2048492;28;20050;-74
2022/12/10 03:09:01;;;;;;;0.82;0.70;;;;;;;18.46;62.56;96998.34;2057541;28;20868;-74
2022/12/10 03:10:09;;;;;;;1.38;0.85;;;;;;;18.46;62.68;96991.09;2056967;28;20894;-74
2022/12/10 03:11:14;;;;;;;1.98;0.90;;;;;;;18.48;62.62;96991.66;2059030;28;20042;-74
2022/12/10 03:12:25;;;;;;;1.63;0.75;;;;;;;18.45;62.37;96986.78;2062455;28;20050;-74
2022/12/10 03:13:33;;;;;;;1.75;0.80;;;;;;;18.45;62.63;96977.91;2059001;28;20064;-73
2022/12/10 03:14:35;;;;;;;1.30;0.95;;;;;;;18.45;62.50;96986.78;2062625;28;22168;-74
2022/12/10 03:15:41;;;;;;;1.50;1.00;;;;;;;18.46;62.56;96984.91;2064873;28;20061;-74
2022/12/10 03:16:49;;;;;;;1.40;0.85;;;;;;;18.44;62.64;96982.47;2055172;28;20058;-73
2022/12/10 03:17:52;;;;;;;0.85;0.63;;;;;;;18.46;62.76;96982.22;2058696;28;20050;-74
2022/12/10 03:18:57;;;;;;;1.30;1.08;;;;;;;18.46;62.55;96974.16;2065080;28;20046;-74
2022/12/10 03:20:01;;;;;;;0.90;0.80;;;;;;;18.43;62.37;96975.47;2064851;28;20420;-74
2022/12/10 03:21:05;;;;;;;1.70;1.10;;;;;;;18.44;62.63;96961.00;2057252;28;20745;-74
2022/12/10 03:22:08;;;;;;;1.95;1.25;;;;;;;18.43;62.76;96963.91;2045413;28;20863;-74
2022/12/10 03:23:14;;;;;;;1.40;0.70;;;;;;;18.43;62.52;96963.91;2055179;28;20119;-74
2022/12/10 03:24:18;;;;;;;0.73;0.73;;;;;;;18.41;62.86;96961.47;2060309;28;20061;-74
2022/12/10 03:25:22;;;;;;;0.93;0.90;;;;;;;18.42;62.69;96960.44;2059654;28;20054;-74
2022/12/10 03:26:26;;;;;;;1.27;0.98;;;;;;;18.41;62.56;96948.03;2057843;28;20042;-74
2022/12/10 03:27:29;;;;;;;2.00;0.77;;;;;;;18.39;62.86;96947.50;2057902;28;20088;-74
2022/12/10 03:28:33;;;;;;;2.00;1.20;;;;;;;18.40;62.93;96945.63;2058440;28;20057;-74
2022/12/10 03:29:36;;;;;;;0.95;0.95;;;;;;;18.40;62.76;96954.47;2055781;28;20041;-74
2022/12/10 03:30:41;;;;;;;1.73;1.20;;;;;;;18.40;62.66;96945.63;2053676;28;20045;-74
2022/12/10 03:31:44;;;;;;;0.70;0.70;;;;;;;18.42;62.71;96944.31;2058223;28;20926;-73
2022/12/10 03:32:47;;;;;;;1.17;0.82;;;;;;;18.41;62.82;96950.72;2062944;28;20053;-73
2022/12/10 03:33:48;;;;;;;0.70;0.70;;;;;;;18.39;62.70;96935.94;2056868;28;20057;-74
2022/12/10 03:34:52;;;;;;;0.85;0.73;;;;;;;18.40;62.84;96946.44;2057568;28;20058;-74
2022/12/10 03:35:53;;;;;;;1.27;0.82;;;;;;;18.39;62.61;96941.31;2062657;28;20052;-74
2022/12/10 03:36:55;;;;;;;;;;;;;;;18.27;63.18;96941.38;2064801;28;20481;-74
2022/12/10 03:37:56;;;;;;;0.98;0.80;;;;;;;18.30;63.14;96938.19;2057252;28;20304;-74
2022/12/10 03:38:59;;;;;;;1.20;0.98;;;;;;;18.33;62.79;96940.41;2056960;28;20123;-74
2022/12/10 03:40:00;;;;;;;1.15;0.82;;;;;;;18.35;62.83;96940.16;2064013;28;20050;-74
2022/12/10 03:41:01;;;;;;;;;;;;;;;18.25;62.97;96946.19;2059549;28;21231;-74
2022/12/10 03:42:04;;;;;;;0.95;0.70;;;;;;;18.28;63.16;96946.50;2065148;28;20379;-74
2022/12/10 03:43:05;;;;;;;2.03;1.23;;;;;;;18.33;62.97;96947.63;2056393;28;20061;-74
2022/12/10 03:44:06;;;;;;;2.33;0.90;;;;;;;18.33;62.93;96943.09;2066125;28;20061;-74
2022/12/10 03:45:08;;;;;;;;;;;;;;;18.21;62.96;96943.16;2059060;28;20060;-74
2022/12/10 03:46:09;;;;;;;1.10;1.00;;;;;;;18.25;63.22;96940.81;2062499;28;20612;-74
2022/12/10 03:47:14;;;;;;;;;;;;;;;18.17;63.45;96943.91;2054890;28;20056;-74
2022/12/10 03:48:15;;;;;;;1.52;0.98;;;;;;;18.23;63.19;96945.59;2058442;28;19965;-74
2022/12/10 03:49:16;;;;;;;;;;;;;;;18.15;63.44;96946.00;2057661;28;20050;-74
2022/12/10 03:50:17;;;;;;;1.15;0.60;;;;;;;18.20;63.10;96935.34;2055026;28;19925;-74
2022/12/10 03:51:19;;;;;;;;;;;;;;;18.12;63.55;96933.06;2061497;28;20503;-74
2022/12/10 03:52:20;;;;;;;;;;;;;;;18.05;63.79;96938.56;2055582;28;19928;-74
2022/12/10 03:53:21;;;;;;;2.92;1.00;;;;;;;18.14;63.49;96939.00;2057790;28;19929;-74
2022/12/10 03:54:22;;;;;;;1.83;1.10;;;;;;;18.21;63.27;96936.97;2060223;28;20050;-74
2022/12/10 03:55:24;;;;;;;;;;;;;;;18.11;63.47;96936.78;2059372;28;20054;-74
2022/12/10 03:56:24;;;;;;;;;;;;;;;18.06;63.87;96941.03;2057543;28;20070;-74
2022/12/10 03:57:26;;;;;;;1.10;0.97;;;;;;;18.13;63.53;96934.69;2060300;28;19952;-74
2022/12/10 03:58:27;;;;;;;1.08;0.75;;;;;;;18.18;63.23;96937.47;2058281;28;20052;-74
2022/12/10 03:59:28;;;;;;;;;;;;;;;18.09;63.39;96937.84;2057425;28;21027;-74
2022/12/10 04:00:29;;;;;;;1.20;0.90;;;;;;;18.16;63.39;96935.00;2054193;28;19979;-74
2022/12/10 04:01:31;;;;;;;;;;;;;;;18.06;63.41;96932.16;2067654;28;20619;-74
2022/12/10 04:02:33;;;;;;;1.60;1.02;;;;;;;18.15;63.29;96932.59;2054534;28;20009;-74
2022/12/10 04:03:36;;;;;;;1.23;0.95;;;;;;;18.18;63.09;96922.16;2056908;28;20053;-74
2022/12/10 04:04:37;;;;;;;1.55;0.95;;;;;;;18.21;63.06;96926.25;2051870;28;20052;-74
2022/12/10 04:05:39;;;;;;;;;;;;;;;18.12;63.28;96925.03;2055639;28;20049;-74
2022/12/10 04:06:40;;;;;;;0.75;0.73;;;;;;;18.16;63.39;96926.16;2052657;28;19933;-74
2022/12/10 04:07:42;;;;;;;1.35;0.98;;;;;;;18.18;63.21;96929.41;2052650;28;20451;-74
2022/12/10 04:08:43;;;;;;;1.33;0.70;;;;;;;18.21;63.02;96924.38;2059170;28;20053;-74
2022/12/10 04:09:46;;;;;;;1.95;0.80;;;;;;;18.23;62.93;96927.63;2054938;28;20057;-74
2022/12/10 04:10:46;;;;;;;1.02;0.80;;;;;;;18.24;62.99;96923.06;2048836;28;20693;-74
2022/12/10 04:11:48;;;;;;;;;;;;;;;18.11;63.24;96923.38;2060946;28;20060;-74
2022/12/10 04:16:26;;;;;;;;;;;;;;;18.03;63.44;96928.09;2056697;28;27001;-74
2022/12/10 04:16:51;;;;;;;0.95;0.85;;;;;;;18.12;63.45;96922.34;2061348;28;20041;-74
2022/12/10 04:17:53;;;;;;;2.13;0.85;;;;;;;18.20;62.87;96917.38;2062617;28;20644;-74
2022/12/10 04:18:56;;;;;;;1.63;0.90;;;;;;;18.19;62.92;96909.56;2058102;28;20054;-74
2022/12/10 04:19:56;;;;;;;0.90;0.60;;;;;;;18.20;63.08;96916.56;2056766;28;20333;-74
2022/12/10 04:27:38;;;;;;;0.60;0.60;;;;;;;18.15;63.15;96908.44;2064753;28;20045;-74
2022/12/10 04:28:38;;;;;;;1.75;0.90;;;;;;;18.16;63.18;96912.72;2064266;28;20053;-74
2022/12/10 04:29:40;;;;;;;;;;;;;;;18.03;63.60;96901.25;2064482;28;20059;-74
2022/12/10 04:30:40;;;;;;;;;;;;;;;17.96;63.58;96908.63;2061882;28;20003;-74
2022/12/10 04:31:42;;;;;;;1.03;0.80;;;;;;;18.02;63.48;96904.97;2064290;28;20423;-74
2022/12/10 04:32:43;;;;;;;1.35;0.82;;;;;;;18.07;63.34;96910.44;2065535;28;20061;-74
2022/12/10 04:33:46;;;;;;;;;;;;;;;18.01;63.49;96902.56;2067087;28;20049;-74
2022/12/10 04:34:47;;;;;;;1.20;0.70;;;;;;;18.04;63.20;96900.19;2061452;28;19931;-74
2022/12/10 04:35:48;;;;;;;;;;;;;;;17.98;63.63;96905.72;2064103;28;20049;-74
2022/12/10 04:36:49;;;;;;;;;;;;;;;17.92;63.79;96904.03;2065422;28;19925;-74
2022/12/10 04:37:51;;;;;;;0.95;0.90;;;;;;;17.97;64.04;96901.41;2068127;28;19936;-73
2022/12/10 04:38:52;;;;;;;1.15;0.90;;;;;;;18.04;63.49;96900.19;2069551;28;20060;-74
2022/12/10 04:39:53;;;;;;;;;;;;;;;17.95;63.78;96898.97;2064985;28;20235;-74
2022/12/10 04:40:54;;;;;;;1.15;0.98;;;;;;;18.02;63.37;96896.94;2060900;28;20023;-74
2022/12/10 04:41:56;;;;;;;;;;;;;;;17.96;63.63;96891.75;2063540;28;20054;-74
2022/12/10 04:42:57;;;;;;;1.30;0.88;;;;;;;18.01;63.59;96892.63;2065076;28;20335;-73
2022/12/10 04:43:58;;;;;;;0.77;0.68;;;;;;;18.05;63.21;96892.97;2065544;28;20050;-74
2022/12/10 04:45:00;;;;;;;;;;;;;;;17.97;63.41;96888.81;2067345;28;20135;-74
2022/12/10 04:46:00;;;;;;;;;;;;;;;17.89;63.85;96897.25;2062493;28;19938;-74
2022/12/10 04:47:04;;;;;;;0.93;0.73;;;;;;;17.98;63.68;96893.13;2065716;28;19925;-74
2022/12/10 04:48:04;;;;;;;0.88;0.88;;;;;;;18.02;63.53;96896.94;2063273;28;20072;-74
2022/12/10 04:49:07;;;;;;;;;;;;;;;17.92;63.47;96894.09;2065791;28;20050;-74
2022/12/10 04:50:08;;;;;;;0.90;0.50;;;;;;;17.99;63.61;96892.06;2068065;28;20379;-74
2022/12/10 04:51:10;;;;;;;;;;;;;;;17.95;63.74;96898.16;2065665;28;20045;-74
2022/12/10 04:52:12;;;;;;;2.08;0.77;;;;;;;18.01;63.33;96886.47;2067105;28;20810;-74
2022/12/10 04:53:14;;;;;;;1.38;1.02;;;;;;;18.08;63.08;96882.56;2065539;28;20048;-74
2022/12/10 04:54:16;;;;;;;0.95;0.70;;;;;;;18.18;62.81;96881.13;2063198;28;20048;-73
2022/12/10 04:55:18;;;;;;;1.15;0.82;;;;;;;18.23;62.75;96887.38;2063619;28;20493;-74
2022/12/10 04:56:18;;;;;;;2.42;1.02;;;;;;;18.28;62.57;96879.41;2069016;28;20046;-74
2022/12/10 04:57:20;;;;;;;;;;;;;;;18.24;62.66;96877.44;2065940;28;20666;-74
2022/12/10 04:58:21;;;;;;;3.45;1.33;;;;;;;18.31;62.62;96868.19;2066255;28;19964;-74
2022/12/10 04:59:23;;;;;;;1.80;0.90;;;;;;;18.39;62.37;96861.59;2067381;28;20574;-74
2022/12/10 05:00:24;;;;;;;1.08;1.00;;;;;;;18.44;62.39;96859.00;2067464;28;20076;-74
2022/12/10 05:01:27;;;;;;;1.05;0.75;;;;;;;18.51;62.14;96861.50;2066764;28;20531;-74
2022/12/10 05:02:28;;;;;;;0.75;0.45;;;;;;;18.53;62.39;96862.88;2066927;28;20076;-73
2022/12/10 05:03:30;;;;;;;;;;;;;;;18.47;62.60;96868.41;2065920;28;20046;-74
2022/12/10 05:04:33;;;;;;;0.80;0.55;;;;;;;18.53;62.38;96859.41;2067427;28;19925;-74
2022/12/10 05:05:34;;;;;;;0.80;0.80;;;;;;;18.56;62.50;96852.72;2069886;28;20054;-74
2022/12/10 05:06:36;;;;;;;;;;;;;;;18.52;62.64;96855.06;2066602;28;20058;-74
2022/12/10 05:07:37;;;;;;;1.15;0.95;;;;;;;18.58;62.57;96851.38;2066486;28;19921;-74
2022/12/10 05:08:39;;;;;;;;;;;;;;;18.56;62.68;96852.72;2067455;28;20061;-74
2022/12/10 05:09:40;;;;;;;1.17;0.90;;;;;;;18.64;62.41;96849.63;2069257;28;19921;-74
2022/12/10 05:10:42;;;;;;;;;;;;;;;18.59;62.41;96844.97;2068453;28;20290;-74
2022/12/10 05:11:44;;;;;;;0.98;0.77;;;;;;;18.68;62.33;96851.53;2067144;28;20091;-74
2022/12/10 05:12:46;;;;;;;1.55;0.70;;;;;;;18.75;62.08;96860.28;2065561;28;20049;-73
2022/12/10 05:13:47;;;;;;;0.80;0.80;;;;;;;18.78;62.34;96861.66;2061272;28;20529;-73